Babaevo, Russia
Current Conditions -  °F | °C
As of 5:00 AM on Monday 26 Jan 2015 (Local Time) from ULWC Reporting Station
Overcast Overcast  
Wind Chill:   Ceiling: 900
Heat Index: 12°   Visibility: 6mi
Dew Point:   Wind: 9mph
Humidity: 85%   Direction: 220°SW
Pressure: 30.24"   Gusts: 16mph
Location:  59.4°N, 35.93°E
Report Text: ULWC 260200Z 22004G07MPS 9999 BKN009 OVC/// M11/M13 Q1024 NOSIGRMK QBB280 QFE757/1010
Loading
Personal Weather Stations






























Interactive Weather Map New forecast layout! Learn more

10-Day Weather Forecast

Advertisements
Track Severe Weather on mobile